createdAt,value
2019-05-21T00:05:04.797Z,6.58
2019-05-21T00:10:10.530Z,6.58
2019-05-21T00:15:16.391Z,6.95
2019-05-21T00:20:22.149Z,6.37
2019-05-21T00:25:27.756Z,6.58
2019-05-21T00:31:09.168Z,6.37
2019-05-21T00:36:52.489Z,6.95
2019-05-21T00:42:02.671Z,6.08
2019-05-21T00:47:19.444Z,6.67
2019-05-21T00:52:25.111Z,6.28
2019-05-21T00:57:30.671Z,6.42
2019-05-21T01:02:36.339Z,6.90
2019-05-21T01:07:41.950Z,6.83
2019-05-21T01:12:47.712Z,6.00
2019-05-21T01:17:53.262Z,7.05
2019-05-21T01:22:58.853Z,6.95
2019-05-21T01:28:04.456Z,6.20
2019-05-21T01:33:10.057Z,5.95
2019-05-21T01:38:15.568Z,6.58
2019-05-21T01:43:21.122Z,6.17
2019-05-21T01:48:26.674Z,6.22
2019-05-21T01:53:32.197Z,5.85
2019-05-21T01:58:37.788Z,6.97
2019-05-21T02:03:43.378Z,6.47
2019-05-21T02:08:49.071Z,6.22
2019-05-21T02:13:54.887Z,7.05
2019-05-21T02:19:00.521Z,6.35
2019-05-21T02:24:06.171Z,6.33
2019-05-21T02:29:11.961Z,6.15
2019-05-21T02:34:17.572Z,6.30
2019-05-21T02:39:23.256Z,7.07
2019-05-21T02:44:28.831Z,6.87
2019-05-21T02:49:34.444Z,5.83
2019-05-21T02:54:41.871Z,6.60
2019-05-21T02:59:48.997Z,5.65
2019-05-21T03:04:54.634Z,5.75
2019-05-21T03:10:00.490Z,6.20
2019-05-21T03:15:06.241Z,6.37
2019-05-21T03:20:12.014Z,6.97
2019-05-21T03:25:18.039Z,6.50
2019-05-21T03:30:23.898Z,8.43
2019-05-21T03:35:29.617Z,6.65
2019-05-21T03:40:35.169Z,6.85
2019-05-21T03:45:40.886Z,6.10
2019-05-21T03:50:46.482Z,6.03
2019-05-21T03:55:52.132Z,5.95
2019-05-21T04:00:57.738Z,6.42
2019-05-21T04:06:03.398Z,6.60
2019-05-21T04:11:09.225Z,6.60
2019-05-21T04:16:37.302Z,6.12
2019-05-21T04:21:42.986Z,7.90
2019-05-21T04:26:48.613Z,7.03
2019-05-21T04:31:54.411Z,6.30
2019-05-21T04:37:09.956Z,6.87
2019-05-21T04:42:07.470Z,6.87
2019-05-21T04:47:13.026Z,6.37
2019-05-21T04:52:18.798Z,6.58
2019-05-21T04:57:24.528Z,6.15
2019-05-21T05:02:30.323Z,5.95
2019-05-21T05:07:35.941Z,7.00
2019-05-21T05:12:41.820Z,6.62
2019-05-21T05:17:47.671Z,6.60
2019-05-21T05:22:53.294Z,7.10
2019-05-21T05:27:59.039Z,7.00
2019-05-21T05:33:04.671Z,7.60
2019-05-21T05:38:10.369Z,7.00
2019-05-21T05:43:16.016Z,7.80
2019-05-21T05:48:21.911Z,6.80
2019-05-21T05:53:27.649Z,7.30
2019-05-21T05:58:33.323Z,8.65
2019-05-21T06:03:39.039Z,8.13
2019-05-21T06:08:44.717Z,7.85
2019-05-21T06:13:50.430Z,7.85
2019-05-21T06:18:56.104Z,7.80
2019-05-21T06:24:01.853Z,7.22
2019-05-21T06:29:07.718Z,7.70
2019-05-21T06:34:14.787Z,7.30
2019-05-21T06:39:20.392Z,8.83
2019-05-21T06:44:26.083Z,7.78
2019-05-21T06:49:31.875Z,7.65
2019-05-21T06:54:37.549Z,8.83
2019-05-21T06:59:44.137Z,8.00
2019-05-21T07:04:49.733Z,7.65
2019-05-21T07:09:55.278Z,7.85
2019-05-21T07:15:00.881Z,7.78
2019-05-21T07:20:07.161Z,6.85
2019-05-21T07:25:13.649Z,7.00
2019-05-21T07:30:19.563Z,8.95
2019-05-21T07:35:25.281Z,7.08
2019-05-21T07:40:31.043Z,5.15
2019-05-21T07:45:39.178Z,4.45
2019-05-21T07:50:45.499Z,3.92
2019-05-21T07:55:51.436Z,6.33
2019-05-21T08:01:01.037Z,5.70
2019-05-21T08:06:04.433Z,6.22
2019-05-21T08:11:10.077Z,5.92
2019-05-21T08:16:15.785Z,5.80
2019-05-21T08:21:21.626Z,5.67
2019-05-21T08:26:27.237Z,4.95
2019-05-21T08:31:32.991Z,4.33
2019-05-21T08:36:38.819Z,4.80
2019-05-21T08:41:44.420Z,3.87
2019-05-21T08:46:50.011Z,3.98
2019-05-21T08:51:55.640Z,3.47
2019-05-21T08:57:01.236Z,3.12
2019-05-21T09:02:07.138Z,2.80
2019-05-21T09:07:12.867Z,2.87
2019-05-21T09:12:18.633Z,2.40
2019-05-21T09:17:24.675Z,2.58
2019-05-21T09:22:30.415Z,3.00
2019-05-21T09:27:36.353Z,2.20
2019-05-21T09:32:45.186Z,2.65
2019-05-21T09:37:51.023Z,2.70
2019-05-21T09:42:56.755Z,2.15
2019-05-21T09:48:02.790Z,1.98
2019-05-21T09:53:08.518Z,1.95
2019-05-21T09:58:33.227Z,1.85
2019-05-21T10:03:43.487Z,1.70
2019-05-21T10:08:49.547Z,2.08
2019-05-21T10:13:55.138Z,2.05
2019-05-21T10:19:00.805Z,1.60
2019-05-21T10:24:06.643Z,1.75
2019-05-21T10:29:12.446Z,2.47
2019-05-21T10:34:18.046Z,2.05
2019-05-21T10:39:23.763Z,1.92
2019-05-21T10:44:29.462Z,2.55
2019-05-21T10:49:35.226Z,1.82
2019-05-21T10:54:41.039Z,1.40
2019-05-21T10:59:46.753Z,1.20
2019-05-21T11:05:09.162Z,1.85
2019-05-21T11:10:16.587Z,1.57
2019-05-21T11:15:23.910Z,1.57
2019-05-21T11:20:29.616Z,1.45
2019-05-21T11:25:35.448Z,1.30
2019-05-21T11:30:41.140Z,1.50
2019-05-21T11:35:46.838Z,2.20
2019-05-21T11:40:52.644Z,2.02
2019-05-21T11:45:58.326Z,1.87
2019-05-21T11:51:03.938Z,2.15
2019-05-21T11:56:09.571Z,2.00
2019-05-21T12:01:15.317Z,2.98
2019-05-21T12:06:20.945Z,2.10
2019-05-21T12:11:26.673Z,2.92
2019-05-21T12:16:32.223Z,3.10
2019-05-21T12:21:37.749Z,2.25
2019-05-21T12:26:43.496Z,2.47
2019-05-21T12:31:49.075Z,2.10
2019-05-21T12:36:54.759Z,2.95
2019-05-21T12:42:00.519Z,2.80
2019-05-21T12:47:09.612Z,2.87
2019-05-21T12:52:13.546Z,5.45
2019-05-21T12:57:19.499Z,3.12
2019-05-21T13:02:25.337Z,4.40
2019-05-21T13:07:31.186Z,3.15
2019-05-21T13:12:37.096Z,2.35
2019-05-21T13:17:42.710Z,4.33
2019-05-21T13:22:48.349Z,3.25
2019-05-21T13:27:57.279Z,3.10
2019-05-21T13:33:01.298Z,2.60
2019-05-21T13:38:07.008Z,2.33
2019-05-21T13:43:14.088Z,4.78
2019-05-21T13:48:19.848Z,7.58
2019-05-21T13:53:25.426Z,4.30
2019-05-21T13:58:31.026Z,4.20
2019-05-21T14:03:37.045Z,3.87
2019-05-21T14:08:42.672Z,2.80
2019-05-21T14:13:48.290Z,3.47
2019-05-21T14:18:53.914Z,9.63
2019-05-21T14:23:59.422Z,3.02
2019-05-21T14:29:05.280Z,3.45
2019-05-21T14:34:10.950Z,2.98
2019-05-21T14:39:18.295Z,2.40
2019-05-21T14:44:23.923Z,2.75
2019-05-21T14:49:29.506Z,3.60
2019-05-21T14:54:35.375Z,3.22
2019-05-21T14:59:41.703Z,3.72
2019-05-21T15:04:47.582Z,5.85
2019-05-21T15:09:53.726Z,2.83
2019-05-21T15:14:59.678Z,2.98
2019-05-21T15:20:09.143Z,5.40
2019-05-21T15:25:15.162Z,6.28
2019-05-21T15:30:20.945Z,4.58
2019-05-21T15:35:26.643Z,2.30
2019-05-21T15:40:32.338Z,3.37
2019-05-21T15:45:38.335Z,2.17
2019-05-21T15:50:44.112Z,3.08
2019-05-21T15:55:49.850Z,3.10
2019-05-21T16:00:55.480Z,2.33
2019-05-21T16:06:01.182Z,2.77
2019-05-21T16:11:07.298Z,3.95
2019-05-21T16:16:13.130Z,2.45
2019-05-21T16:21:20.601Z,2.20
2019-05-21T16:26:26.578Z,2.37
2019-05-21T16:31:32.336Z,2.70
2019-05-21T16:36:39.929Z,2.58
2019-05-21T16:41:45.852Z,3.55
2019-05-21T16:46:51.496Z,3.90
2019-05-21T16:51:57.364Z,2.70
2019-05-21T16:57:03.296Z,5.15
2019-05-21T17:02:08.966Z,3.95
2019-05-21T17:07:14.760Z,6.37
2019-05-21T17:12:20.385Z,2.27
2019-05-21T17:17:26.135Z,2.37
2019-05-21T17:22:31.882Z,3.15
2019-05-21T17:27:37.617Z,2.33
2019-05-21T17:32:43.712Z,1.80
2019-05-21T17:37:49.438Z,6.05
2019-05-21T17:42:55.331Z,2.77
2019-05-21T17:48:01.321Z,8.40
2019-05-21T17:53:07.024Z,3.40
2019-05-21T17:58:12.856Z,1.62
2019-05-21T18:03:19.130Z,2.90
2019-05-21T18:08:24.801Z,3.05
2019-05-21T18:13:31.043Z,1.87
2019-05-21T18:18:36.947Z,1.25
2019-05-21T18:23:43.159Z,1.20
2019-05-21T18:28:48.941Z,2.20
2019-05-21T18:33:54.727Z,2.98
2019-05-21T18:39:00.743Z,1.90
2019-05-21T18:44:06.806Z,1.98
2019-05-21T18:49:12.715Z,1.90
2019-05-21T18:54:19.898Z,7.05
2019-05-21T18:59:25.678Z,1.80
2019-05-21T19:04:32.170Z,3.00
2019-05-21T19:09:38.596Z,1.67
2019-05-21T19:14:45.387Z,2.12
2019-05-21T19:19:51.291Z,2.80
2019-05-21T19:24:57.031Z,2.42
2019-05-21T19:30:03.156Z,1.80
2019-05-21T19:35:09.271Z,2.30
2019-05-21T19:40:15.513Z,3.30
2019-05-21T19:45:22.408Z,3.02
2019-05-21T19:50:28.188Z,2.62
2019-05-21T19:55:35.169Z,1.85
2019-05-21T20:00:47.224Z,2.15
2019-05-21T20:05:54.470Z,2.00
2019-05-21T20:11:00.965Z,2.45
2019-05-21T20:16:08.325Z,2.35
2019-05-21T20:21:14.922Z,3.25
2019-05-21T20:26:22.700Z,2.10
2019-05-21T20:31:31.178Z,4.25
2019-05-21T20:36:40.473Z,2.15
2019-05-21T20:41:44.801Z,3.15
2019-05-21T20:46:50.805Z,2.85
2019-05-21T20:51:57.105Z,3.62
2019-05-21T20:57:03.314Z,3.35
2019-05-21T21:02:09.925Z,4.03
2019-05-21T21:07:16.140Z,3.00
2019-05-21T21:12:22.247Z,4.58
2019-05-21T21:17:28.039Z,3.37
2019-05-21T21:22:33.925Z,2.30
2019-05-21T21:27:41.449Z,2.35
2019-05-21T21:32:47.049Z,2.95
2019-05-21T21:37:52.709Z,2.52
2019-05-21T21:42:58.295Z,3.12
2019-05-21T21:48:04.623Z,3.08
2019-05-21T21:53:10.938Z,3.02
2019-05-21T21:58:16.759Z,3.60
2019-05-21T22:03:22.748Z,3.30
2019-05-21T22:08:29.729Z,3.10
2019-05-21T22:13:35.763Z,3.45
2019-05-21T22:18:42.018Z,3.30
2019-05-21T22:23:50.320Z,3.22
2019-05-21T22:28:55.495Z,3.10
2019-05-21T22:34:01.112Z,3.15
2019-05-21T22:39:12.610Z,2.80
2019-05-21T22:44:18.265Z,4.33
2019-05-21T22:49:25.803Z,5.33
2019-05-21T22:54:31.703Z,3.12
2019-05-21T22:59:37.412Z,3.20
2019-05-21T23:04:43.144Z,4.05
2019-05-21T23:09:49.138Z,3.20
2019-05-21T23:14:55.203Z,3.67
2019-05-21T23:20:02.214Z,2.90
2019-05-21T23:25:08.708Z,3.00
2019-05-21T23:30:15.887Z,2.47
2019-05-21T23:35:22.124Z,3.20
2019-05-21T23:40:28.075Z,2.98
2019-05-21T23:45:34.173Z,3.35
2019-05-21T23:50:39.828Z,3.70
2019-05-21T23:55:45.549Z,3.98
